Time;durP1;ratioP1;P1;durP2;ratioP2;P2;SDS_P1;SDS_P2;PMS_P1;PMS_P2;Temp;Humidity;BMP_temperature;BMP_pressure;BME280_temperature;BME280_humidity;BME280_pressure;Samples;Min_cycle;Max_cycle;Signal;HPM_P1;HPM_P2
2023/03/06 00:01:33;;;;;;;11.43;5.10;;;8.00;49.60;;;;;;2295168;55;21491;-70
2023/03/06 00:03:59;;;;;;;8.68;4.00;;;8.00;49.70;;;;;;2311270;55;20961;-70
2023/03/06 00:06:25;;;;;;;10.05;4.85;;;7.90;49.50;;;;;;2313543;55;20977;-70
2023/03/06 00:08:53;;;;;;;8.73;4.53;;;8.00;49.60;;;;;;2311059;55;20945;-70
2023/03/06 00:11:19;;;;;;;9.80;5.18;;;8.00;49.60;;;;;;2498079;54;21406;-70
2023/03/06 00:13:45;;;;;;;7.97;4.07;;;7.90;49.60;;;;;;2310729;56;20917;-70
2023/03/06 00:16:11;;;;;;;9.85;5.18;;;8.00;49.70;;;;;;2290581;55;20987;-70
2023/03/06 00:18:37;;;;;;;11.07;4.97;;;7.90;49.70;;;;;;2309087;55;21432;-70
2023/03/06 00:21:07;;;;;;;8.90;4.57;;;7.90;49.70;;;;;;2312227;55;21709;-70
2023/03/06 00:23:35;;;;;;;10.00;5.10;;;7.90;49.70;;;;;;2310938;55;21001;-70
2023/03/06 00:26:01;;;;;;;11.38;5.35;;;8.00;49.80;;;;;;2549958;54;20940;-70
2023/03/06 00:28:29;;;;;;;9.68;5.03;;;8.00;49.80;;;;;;2311116;55;21258;-70
2023/03/06 00:30:56;;;;;;;8.52;4.75;;;7.90;50.40;;;;;;2298408;55;20939;-70
2023/03/06 00:33:22;;;;;;;9.15;4.37;;;7.90;49.80;;;;;;2304304;56;21689;-70
2023/03/06 00:35:48;;;;;;;7.45;3.92;;;8.00;49.80;;;;;;2311805;55;21418;-70
2023/03/06 00:38:14;;;;;;;7.15;3.78;;;8.00;49.80;;;;;;2279862;55;20962;-70
2023/03/06 00:40:41;;;;;;;6.37;3.40;;;8.00;49.80;;;;;;2298176;55;20974;-70
2023/03/06 00:43:07;;;;;;;8.55;4.53;;;7.90;49.70;;;;;;2279737;56;21403;-70
2023/03/06 00:45:33;;;;;;;7.25;3.92;;;8.00;49.80;;;;;;2290823;55;21451;-70
2023/03/06 00:47:59;;;;;;;8.07;4.22;;;7.90;49.70;;;;;;2334221;54;21447;-70
2023/03/06 00:50:25;;;;;;;8.27;4.15;;;8.00;49.70;;;;;;2311183;55;21743;-70
2023/03/06 00:52:52;;;;;;;10.75;5.28;;;8.00;49.80;;;;;;2311020;56;20977;-70
2023/03/06 00:55:18;;;;;;;10.32;5.65;;;7.90;49.70;;;;;;2313708;55;20933;-70
2023/03/06 00:57:44;;;;;;;9.68;4.97;;;7.90;49.80;;;;;;2312566;55;20925;-70
2023/03/06 01:00:11;;;;;;;8.93;4.97;;;7.90;49.80;;;;;;2431578;54;20921;-70
2023/03/06 01:02:37;;;;;;;10.88;4.80;;;7.90;49.90;;;;;;2287614;55;20959;-70
2023/03/06 01:05:04;;;;;;;9.60;4.70;;;7.90;50.00;;;;;;2310799;55;20981;-70
2023/03/06 01:07:32;;;;;;;8.05;4.28;;;8.00;50.00;;;;;;2312952;55;21509;-70
2023/03/06 01:09:59;;;;;;;7.40;3.97;;;8.00;50.00;;;;;;2522099;53;21164;-70
2023/03/06 01:12:25;;;;;;;8.30;4.15;;;8.00;50.00;;;;;;2306858;55;20941;-70
2023/03/06 01:14:51;;;;;;;6.87;3.67;;;8.00;50.00;;;;;;2369864;54;20909;-70
2023/03/06 01:17:17;;;;;;;6.12;3.47;;;7.90;50.00;;;;;;2292624;55;20998;-70
2023/03/06 01:19:44;;;;;;;6.80;3.60;;;7.90;49.90;;;;;;2306817;55;21440;-70
2023/03/06 01:22:10;;;;;;;8.18;3.72;;;8.00;50.00;;;;;;2311214;55;21016;-70
2023/03/06 01:24:36;;;;;;;7.00;3.30;;;8.00;50.00;;;;;;2513616;54;20969;-70
2023/03/06 01:27:02;;;;;;;6.22;3.08;;;7.90;49.80;;;;;;2416908;54;20982;-70
2023/03/06 01:29:29;;;;;;;8.10;3.47;;;7.90;49.80;;;;;;2302270;55;21406;-70
2023/03/06 01:31:55;;;;;;;6.37;3.30;;;7.90;49.80;;;;;;2370359;54;20920;-70
2023/03/06 01:34:21;;;;;;;7.25;3.40;;;7.90;49.80;;;;;;2310211;55;21018;-69
2023/03/06 01:36:47;;;;;;;6.37;3.30;;;7.90;49.90;;;;;;2309694;55;20930;-70
2023/03/06 01:39:13;;;;;;;7.62;3.53;;;7.90;49.90;;;;;;2547555;54;21573;-69
2023/03/06 01:41:40;;;;;;;7.20;3.70;;;7.90;49.90;;;;;;2521283;54;20941;-70
2023/03/06 01:44:06;;;;;;;8.75;3.95;;;7.90;49.90;;;;;;2310353;55;20937;-70
2023/03/06 01:46:37;;;;;;;9.55;4.35;;;7.90;49.90;;;;;;2310473;55;20959;-70
2023/03/06 01:49:07;;;;;;;10.43;4.85;;;7.90;50.00;;;;;;2289399;55;21277;-70
2023/03/06 01:54:12;;;;;;;9.98;4.65;;;7.90;50.00;;;;;;2548645;54;21318;-70
2023/03/06 01:56:39;;;;;;;7.85;3.70;;;7.90;50.10;;;;;;2312005;55;21410;-70
2023/03/06 01:59:06;;;;;;;7.95;4.00;;;7.90;49.90;;;;;;2288515;55;20962;-70
2023/03/06 02:01:32;;;;;;;11.52;5.00;;;7.90;50.00;;;;;;2310723;56;20946;-70
2023/03/06 02:03:59;;;;;;;11.02;5.30;;;7.90;50.00;;;;;;2311010;56;21288;-70
2023/03/06 02:06:25;;;;;;;8.32;3.85;;;7.80;50.00;;;;;;2311321;56;20893;-70
2023/03/06 02:08:52;;;;;;;9.15;4.78;;;7.80;50.00;;;;;;2332957;54;21052;-70
2023/03/06 02:11:22;;;;;;;9.25;4.78;;;7.80;50.00;;;;;;2311051;56;20937;-70
2023/03/06 02:13:49;;;;;;;9.93;4.28;;;7.80;50.10;;;;;;2287855;55;21007;-70
2023/03/06 02:16:15;;;;;;;9.55;4.20;;;7.80;50.10;;;;;;2349829;54;21465;-70
2023/03/06 02:18:41;;;;;;;10.38;5.12;;;7.80;50.10;;;;;;2290434;55;21065;-70
2023/03/06 02:21:09;;;;;;;9.70;4.85;;;7.80;50.10;;;;;;2307333;55;20941;-70
2023/03/06 02:24:25;;;;;;;10.00;5.20;;;7.80;50.20;;;;;;2293058;55;20931;-70
2023/03/06 02:26:51;;;;;;;11.77;4.87;;;7.80;50.20;;;;;;2311149;55;20981;-70
2023/03/06 02:29:22;;;;;;;11.38;6.03;;;7.80;50.10;;;;;;2481263;54;21498;-70
2023/03/06 02:31:49;;;;;;;13.15;5.85;;;7.80;50.20;;;;;;2461437;54;20940;-70
2023/03/06 02:35:00;;;;;;;11.27;5.18;;;7.80;50.20;;;;;;2287742;55;21014;-70
2023/03/06 02:37:27;;;;;;;10.65;5.97;;;7.90;50.50;;;;;;2310926;55;20933;-70
2023/03/06 02:39:59;;;;;;;10.98;5.60;;;7.80;50.20;;;;;;2286172;55;21002;-70
2023/03/06 02:42:27;;;;;;;10.85;5.97;;;7.80;50.20;;;;;;2312770;55;21020;-70
2023/03/06 02:44:54;;;;;;;11.32;5.25;;;7.80;50.30;;;;;;2284969;55;21341;-70
2023/03/06 02:47:20;;;;;;;10.70;5.35;;;7.80;50.30;;;;;;2403517;54;20909;-70
2023/03/06 02:49:46;;;;;;;11.20;5.57;;;7.80;50.30;;;;;;2310765;55;20961;-70
2023/03/06 02:52:12;;;;;;;10.35;5.05;;;7.80;50.30;;;;;;2309791;56;20913;-70
2023/03/06 02:54:39;;;;;;;10.07;4.85;;;7.80;50.30;;;;;;2366682;54;20985;-70
2023/03/06 02:57:05;;;;;;;7.72;4.07;;;7.80;50.30;;;;;;2309312;55;20913;-70
2023/03/06 02:59:31;;;;;;;8.90;4.32;;;7.80;50.30;;;;;;2309039;55;20977;-70
2023/03/06 03:01:58;;;;;;;10.02;4.65;;;7.80;50.30;;;;;;2309783;56;20937;-70
2023/03/06 03:04:24;;;;;;;7.70;3.97;;;7.80;50.30;;;;;;2311452;55;21514;-70
2023/03/06 03:06:50;;;;;;;8.52;4.43;;;7.70;50.20;;;;;;2309948;56;20937;-70
2023/03/06 03:09:16;;;;;;;9.65;4.65;;;7.70;50.20;;;;;;2310423;55;21036;-70
2023/03/06 03:11:43;;;;;;;10.70;4.80;;;7.70;50.20;;;;;;2310231;56;21439;-70
2023/03/06 03:14:09;;;;;;;9.40;4.40;;;7.70;50.20;;;;;;2329004;54;20987;-70
2023/03/06 03:16:35;;;;;;;7.45;4.05;;;7.70;50.30;;;;;;2297790;55;21020;-70
2023/03/06 03:19:04;;;;;;;9.65;4.20;;;7.70;50.30;;;;;;2309056;55;21352;-70
2023/03/06 03:21:30;;;;;;;9.25;4.10;;;7.70;50.40;;;;;;2309859;56;21049;-70
2023/03/06 03:23:57;;;;;;;11.30;4.95;;;7.70;50.40;;;;;;2309941;55;21567;-70
2023/03/06 03:26:23;;;;;;;10.00;4.82;;;7.70;50.40;;;;;;2309934;55;21367;-70
2023/03/06 03:28:49;;;;;;;7.75;4.20;;;7.60;50.30;;;;;;2390174;54;21469;-70
2023/03/06 03:31:15;;;;;;;10.30;4.75;;;7.60;50.30;;;;;;2497915;54;21221;-70
2023/03/06 03:33:42;;;;;;;10.13;4.68;;;7.60;50.30;;;;;;2312396;54;21020;-70
2023/03/06 03:36:08;;;;;;;10.02;4.95;;;7.60;50.40;;;;;;2310003;55;20945;-70
2023/03/06 03:38:34;;;;;;;9.27;4.55;;;7.60;50.40;;;;;;2408954;54;20938;-70
2023/03/06 03:41:01;;;;;;;9.32;5.18;;;7.60;50.40;;;;;;2311007;56;20954;-70
2023/03/06 03:43:27;;;;;;;9.85;5.03;;;7.60;50.40;;;;;;2356158;54;21344;-70
2023/03/06 03:45:53;;;;;;;12.43;5.32;;;7.60;50.40;;;;;;2287058;55;21001;-70
2023/03/06 03:48:19;;;;;;;8.40;4.28;;;7.60;50.50;;;;;;2310961;55;21509;-69
2023/03/06 03:50:46;;;;;;;9.05;4.37;;;7.60;50.50;;;;;;2288462;55;20995;-70
2023/03/06 03:53:13;;;;;;;10.07;4.72;;;7.60;50.50;;;;;;2309853;55;20917;-70
2023/03/06 03:55:39;;;;;;;9.25;4.40;;;7.50;50.40;;;;;;2313256;55;20933;-70
2023/03/06 03:58:05;;;;;;;9.18;4.70;;;7.60;50.50;;;;;;2388773;54;20949;-70
2023/03/06 04:00:31;;;;;;;8.85;4.60;;;7.50;50.40;;;;;;2472934;54;21554;-70
2023/03/06 04:02:57;;;;;;;8.68;4.20;;;7.60;50.50;;;;;;2311446;56;20914;-70
2023/03/06 04:05:24;;;;;;;10.27;5.45;;;7.50;50.50;;;;;;2297938;55;20999;-70
2023/03/06 04:07:50;;;;;;;9.35;5.03;;;7.50;50.50;;;;;;2300937;55;21006;-70
2023/03/06 04:10:16;;;;;;;11.43;5.35;;;7.50;50.50;;;;;;2310859;55;21183;-70
2023/03/06 04:12:42;;;;;;;9.93;5.03;;;7.50;50.60;;;;;;2311056;56;20954;-70
2023/03/06 04:15:09;;;;;;;11.25;5.32;;;7.60;50.60;;;;;;2312347;55;20953;-70
2023/03/06 04:17:35;;;;;;;8.40;4.60;;;7.50;50.50;;;;;;2327274;54;20941;-70
2023/03/06 04:20:03;;;;;;;11.12;5.53;;;7.50;50.50;;;;;;2307722;55;21548;-70
2023/03/06 04:22:29;;;;;;;11.15;5.68;;;7.50;50.50;;;;;;2292719;55;20957;-70
2023/03/06 04:24:55;;;;;;;9.20;4.57;;;7.50;50.60;;;;;;2312988;55;20996;-70
2023/03/06 04:27:21;;;;;;;9.02;4.50;;;7.50;50.60;;;;;;2310548;56;21295;-70
2023/03/06 04:29:48;;;;;;;9.13;4.62;;;7.50;50.60;;;;;;2427456;54;20970;-70
2023/03/06 04:32:14;;;;;;;10.35;5.30;;;7.50;50.70;;;;;;2310712;56;20930;-70
2023/03/06 04:34:40;;;;;;;11.52;6.03;;;7.50;50.70;;;;;;2310966;56;21529;-70
2023/03/06 04:37:10;;;;;;;10.68;5.55;;;7.50;50.70;;;;;;2312284;55;21699;-70
2023/03/06 04:39:36;;;;;;;13.27;5.72;;;7.50;50.80;;;;;;2312441;55;21351;-70
2023/03/06 04:42:03;;;;;;;10.95;6.43;;;7.50;50.70;;;;;;2311726;55;21033;-70
2023/03/06 04:44:29;;;;;;;13.35;6.60;;;7.50;50.70;;;;;;2310847;55;20997;-70
2023/03/06 04:46:55;;;;;;;13.85;6.28;;;7.50;50.80;;;;;;2288636;55;21366;-70
2023/03/06 04:49:21;;;;;;;12.18;5.85;;;7.50;50.80;;;;;;2360782;54;20954;-70
2023/03/06 04:51:48;;;;;;;10.00;5.43;;;7.50;51.40;;;;;;2287036;55;20939;-70
2023/03/06 04:54:14;;;;;;;10.43;5.12;;;7.50;50.80;;;;;;2430073;54;20925;-70
2023/03/06 04:56:40;;;;;;;9.27;4.65;;;7.50;50.80;;;;;;2293843;55;20947;-70
2023/03/06 04:59:07;;;;;;;9.30;4.82;;;7.50;50.80;;;;;;2303735;55;20913;-70
2023/03/06 05:01:33;;;;;;;11.82;5.43;;;7.50;50.80;;;;;;2310858;56;21461;-70
2023/03/06 05:03:59;;;;;;;11.70;5.12;;;7.50;50.80;;;;;;2311310;55;20945;-70
2023/03/06 05:06:26;;;;;;;10.25;5.12;;;7.50;50.80;;;;;;2311689;55;20945;-70
2023/03/06 05:08:52;;;;;;;12.10;5.15;;;7.50;50.80;;;;;;2310559;56;20993;-70
2023/03/06 05:11:18;;;;;;;10.20;4.93;;;7.50;50.80;;;;;;2314029;55;20933;-70
2023/03/06 05:13:44;;;;;;;10.30;5.07;;;7.50;50.80;;;;;;2534207;54;21323;-70
2023/03/06 05:16:11;;;;;;;11.88;5.25;;;7.50;50.80;;;;;;2306696;55;21419;-70
2023/03/06 05:18:37;;;;;;;12.45;6.37;;;7.50;50.80;;;;;;2291446;55;21224;-70
2023/03/06 05:21:03;;;;;;;14.60;7.35;;;7.50;50.80;;;;;;2521102;54;21015;-70
2023/03/06 05:23:30;;;;;;;13.30;6.70;;;7.50;50.80;;;;;;2347400;54;20918;-70
2023/03/06 05:25:57;;;;;;;13.73;7.37;;;7.60;51.00;;;;;;2312494;55;21008;-70
2023/03/06 05:28:24;;;;;;;14.50;7.60;;;7.50;50.80;;;;;;2406906;54;20917;-70
2023/03/06 05:30:50;;;;;;;14.50;7.45;;;7.50;50.90;;;;;;2311059;55;20989;-70
2023/03/06 05:33:17;;;;;;;13.62;7.53;;;7.50;50.80;;;;;;2311401;55;20969;-70
2023/03/06 05:35:46;;;;;;;15.75;7.47;;;7.60;50.90;;;;;;2310936;55;21230;-70
2023/03/06 05:38:13;;;;;;;15.07;7.05;;;7.50;50.80;;;;;;2314175;55;20921;-70
2023/03/06 05:40:40;;;;;;;13.62;7.35;;;7.50;50.80;;;;;;2415852;54;21005;-70
2023/03/06 05:43:07;;;;;;;11.35;5.95;;;7.50;50.80;;;;;;2293439;54;21432;-70
2023/03/06 05:45:34;;;;;;;13.90;6.55;;;7.50;50.80;;;;;;2513455;54;21006;-70
2023/03/06 05:48:00;;;;;;;12.88;7.07;;;7.50;50.80;;;;;;2290614;55;21085;-70
2023/03/06 05:50:26;;;;;;;12.13;6.18;;;7.50;50.80;;;;;;2307924;55;21045;-70
2023/03/06 05:52:53;;;;;;;12.95;6.78;;;7.50;50.80;;;;;;2374561;54;20947;-70
2023/03/06 05:55:20;;;;;;;14.15;6.85;;;7.50;50.80;;;;;;2305149;55;20957;-70
2023/03/06 05:57:47;;;;;;;13.95;7.50;;;7.50;50.90;;;;;;2311816;55;21001;-70
2023/03/06 06:00:13;;;;;;;14.35;7.50;;;7.50;50.90;;;;;;2310032;55;20949;-70
2023/03/06 06:02:42;;;;;;;12.68;6.40;;;7.50;50.90;;;;;;2299188;55;20931;-70
2023/03/06 06:05:09;;;;;;;13.98;7.30;;;7.50;50.90;;;;;;2299576;55;20949;-69
2023/03/06 06:07:37;;;;;;;13.02;6.65;;;7.50;50.90;;;;;;2300465;55;21696;-70
2023/03/06 06:10:04;;;;;;;12.85;5.97;;;7.50;50.90;;;;;;2297555;55;20957;-70
2023/03/06 06:12:30;;;;;;;12.82;6.28;;;7.50;51.00;;;;;;2303678;55;21390;-70
2023/03/06 06:14:57;;;;;;;13.02;6.15;;;7.50;51.00;;;;;;2294896;55;20949;-69
2023/03/06 06:17:23;;;;;;;13.10;6.37;;;7.50;51.00;;;;;;2306819;55;21274;-70
2023/03/06 06:19:49;;;;;;;11.27;5.47;;;7.50;51.00;;;;;;2284032;55;21512;-70
2023/03/06 06:22:15;;;;;;;13.27;7.25;;;7.50;51.00;;;;;;2352750;54;20929;-70
2023/03/06 06:24:41;;;;;;;12.90;7.62;;;7.50;51.00;;;;;;2434390;54;20933;-70
2023/03/06 06:27:08;;;;;;;14.60;7.07;;;7.50;51.00;;;;;;2313416;55;20913;-70
2023/03/06 06:29:34;;;;;;;12.20;6.57;;;7.50;51.00;;;;;;2311201;56;20937;-70
2023/03/06 06:32:00;;;;;;;13.38;7.28;;;7.60;51.10;;;;;;2353194;54;21288;-70
2023/03/06 06:34:27;;;;;;;14.38;7.68;;;7.50;51.00;;;;;;2340050;54;21097;-70
2023/03/06 06:36:53;;;;;;;15.02;7.65;;;7.50;51.00;;;;;;2424654;54;20962;-70
2023/03/06 06:39:20;;;;;;;17.65;7.70;;;7.60;51.10;;;;;;2343380;54;20961;-70
2023/03/06 06:41:47;;;;;;;12.40;6.28;;;7.50;51.00;;;;;;2310219;56;20993;-70
2023/03/06 06:44:28;;;;;;;14.07;7.05;;;7.50;51.00;;;;;;2314079;55;21012;-70
2023/03/06 06:46:54;;;;;;;14.40;8.13;;;7.50;51.00;;;;;;2310888;55;21005;-70
2023/03/06 06:49:51;;;;;;;15.30;7.32;;;7.60;51.10;;;;;;2287098;55;22908;-70
2023/03/06 06:52:17;;;;;;;15.13;6.97;;;7.60;51.10;;;;;;2311493;56;20893;-70
2023/03/06 06:54:44;;;;;;;15.63;8.55;;;7.50;51.00;;;;;;2310932;55;20976;-70
2023/03/06 06:57:11;;;;;;;14.90;6.87;;;7.60;51.10;;;;;;2342900;54;20973;-70
2023/03/06 06:59:37;;;;;;;15.10;7.65;;;7.50;51.00;;;;;;2288208;55;20999;-70
2023/03/06 07:02:03;;;;;;;13.35;6.85;;;7.60;51.10;;;;;;2310895;56;20934;-70
2023/03/06 07:04:29;;;;;;;15.60;7.78;;;7.60;51.10;;;;;;2311834;55;21253;-70
2023/03/06 07:06:56;;;;;;;13.68;7.30;;;7.60;51.10;;;;;;2381919;54;20945;-70
2023/03/06 07:09:22;;;;;;;14.40;7.12;;;7.60;51.10;;;;;;2311529;55;20933;-70
2023/03/06 07:11:48;;;;;;;15.77;6.87;;;7.60;51.20;;;;;;2310793;55;21332;-70
2023/03/06 07:14:14;;;;;;;14.38;7.12;;;7.60;51.30;;;;;;2298171;55;20970;-69
2023/03/06 07:16:41;;;;;;;14.50;7.55;;;7.60;51.10;;;;;;2302484;55;20917;-70
2023/03/06 07:19:07;;;;;;;13.40;6.80;;;7.60;51.20;;;;;;2300867;55;21018;-70
2023/03/06 07:21:33;;;;;;;16.70;7.87;;;7.60;51.20;;;;;;2298695;55;21944;-70
2023/03/06 07:23:59;;;;;;;14.02;7.62;;;7.60;51.80;;;;;;2311655;55;21363;-70
2023/03/06 07:26:26;;;;;;;14.98;7.70;;;7.60;51.20;;;;;;2310901;55;20993;-70
2023/03/06 07:28:52;;;;;;;13.18;7.35;;;7.60;51.20;;;;;;2312890;55;20953;-70
2023/03/06 07:31:20;;;;;;;15.75;8.02;;;7.70;51.30;;;;;;2310278;55;20981;-70
2023/03/06 07:33:50;;;;;;;15.63;8.52;;;7.70;51.30;;;;;;2313074;56;20933;-70
2023/03/06 07:36:16;;;;;;;15.27;8.55;;;7.70;51.40;;;;;;2311204;55;20925;-70
2023/03/06 07:38:42;;;;;;;17.05;8.45;;;7.70;51.40;;;;;;2311041;55;20937;-71
2023/03/06 07:41:12;;;;;;;16.70;7.85;;;7.80;51.50;;;;;;2380377;53;21065;-70
2023/03/06 07:43:44;;;;;;;15.43;7.85;;;7.80;51.40;;;;;;2310702;55;21435;-70
2023/03/06 07:46:11;;;;;;;18.05;8.52;;;7.80;51.50;;;;;;2311585;55;21401;-70
2023/03/06 07:48:37;;;;;;;17.73;8.90;;;7.80;51.40;;;;;;2313051;55;21101;-70
2023/03/06 07:51:05;;;;;;;14.68;7.82;;;7.90;51.40;;;;;;2288252;55;21486;-70
2023/03/06 07:53:32;;;;;;;16.80;8.68;;;7.90;51.40;;;;;;2514099;54;21446;-70
2023/03/06 07:55:58;;;;;;;16.90;8.95;;;7.90;51.40;;;;;;2332077;54;20925;-70
2023/03/06 07:58:25;;;;;;;15.25;7.78;;;7.90;51.40;;;;;;2310624;55;20950;-70
2023/03/06 08:00:51;;;;;;;17.05;8.32;;;8.00;51.40;;;;;;2312500;55;21025;-70
2023/03/06 08:03:17;;;;;;;16.40;7.90;;;8.00;51.40;;;;;;2311170;55;20974;-70
2023/03/06 08:05:43;;;;;;;15.45;8.15;;;8.00;51.30;;;;;;2314261;55;20981;-70
2023/03/06 08:08:10;;;;;;;19.05;9.48;;;8.00;51.90;;;;;;2465556;54;20977;-70
2023/03/06 08:10:36;;;;;;;21.00;10.00;;;8.10;51.30;;;;;;2295688;55;20998;-70
2023/03/06 08:13:03;;;;;;;18.67;9.00;;;8.10;51.30;;;;;;2302907;55;20942;-70
2023/03/06 08:15:29;;;;;;;18.60;9.93;;;8.10;51.20;;;;;;2297702;55;20923;-70
2023/03/06 08:17:55;;;;;;;22.42;10.15;;;8.20;51.30;;;;;;2425626;54;20989;-70
2023/03/06 08:20:21;;;;;;;21.02;9.82;;;8.10;51.20;;;;;;2302013;55;21360;-70
2023/03/06 08:22:48;;;;;;;20.42;10.70;;;8.20;51.20;;;;;;2296552;55;21347;-70
2023/03/06 08:25:14;;;;;;;22.83;9.98;;;8.20;51.20;;;;;;2358737;54;21511;-70
2023/03/06 08:27:40;;;;;;;19.15;9.38;;;8.20;51.10;;;;;;2294095;55;20909;-70
2023/03/06 08:30:07;;;;;;;20.62;9.60;;;8.20;51.10;;;;;;2310818;55;21414;-70
2023/03/06 08:32:35;;;;;;;19.40;9.45;;;8.30;51.20;;;;;;2357083;54;20978;-70
2023/03/06 08:35:05;;;;;;;19.02;8.95;;;8.30;51.20;;;;;;2309944;55;20914;-70
2023/03/06 08:37:31;;;;;;;18.80;8.98;;;8.30;51.10;;;;;;2289377;55;21462;-70
2023/03/06 08:39:57;;;;;;;16.55;8.63;;;8.30;51.00;;;;;;2311397;55;21088;-70
2023/03/06 08:42:24;;;;;;;16.37;8.70;;;8.30;51.00;;;;;;2314171;54;21352;-70
2023/03/06 08:44:50;;;;;;;14.70;7.90;;;8.30;50.90;;;;;;2310878;56;20937;-70
2023/03/06 08:47:16;;;;;;;15.93;8.38;;;8.40;51.00;;;;;;2319346;54;20940;-70
2023/03/06 08:49:42;;;;;;;16.40;8.05;;;8.40;51.00;;;;;;2311260;56;20925;-70
2023/03/06 08:52:09;;;;;;;14.05;7.65;;;8.40;51.00;;;;;;2363333;54;20913;-70
2023/03/06 08:54:37;;;;;;;15.30;7.90;;;8.40;50.90;;;;;;2310684;55;20960;-70
2023/03/06 08:57:04;;;;;;;17.80;8.48;;;8.50;50.90;;;;;;2299630;55;20995;-70
2023/03/06 08:59:30;;;;;;;15.13;7.97;;;8.50;50.90;;;;;;2310964;55;21149;-70
2023/03/06 09:01:56;;;;;;;16.05;8.13;;;8.50;50.80;;;;;;2313176;55;21402;-70
2023/03/06 09:04:22;;;;;;;16.17;8.65;;;8.50;50.80;;;;;;2310815;55;20985;-70
2023/03/06 09:06:49;;;;;;;16.00;8.30;;;8.60;50.90;;;;;;2294246;55;21254;-71
2023/03/06 09:09:15;;;;;;;17.20;7.82;;;8.60;50.70;;;;;;2304148;55;20970;-70
2023/03/06 09:11:41;;;;;;;15.05;7.95;;;8.50;51.10;;;;;;2406078;54;20939;-70
2023/03/06 09:14:07;;;;;;;13.68;7.30;;;8.60;50.50;;;;;;2378745;54;21561;-70
2023/03/06 09:16:34;;;;;;;14.60;7.00;;;8.60;50.50;;;;;;2349962;54;20981;-70
2023/03/06 09:19:00;;;;;;;12.50;6.85;;;8.60;50.50;;;;;;2453091;54;21489;-70
2023/03/06 09:21:27;;;;;;;14.57;7.50;;;8.60;50.50;;;;;;2309894;55;20989;-70
2023/03/06 09:23:53;;;;;;;14.50;7.12;;;8.70;50.50;;;;;;2381079;54;21387;-70
2023/03/06 09:26:19;;;;;;;17.08;7.78;;;8.70;50.50;;;;;;2307228;55;21070;-70
2023/03/06 09:28:46;;;;;;;17.65;7.78;;;8.70;50.50;;;;;;2292488;55;21017;-70
2023/03/06 09:31:17;;;;;;;16.58;8.07;;;8.70;50.40;;;;;;2456373;54;21438;-70
2023/03/06 09:33:43;;;;;;;15.13;8.70;;;8.70;50.40;;;;;;2412909;54;20937;-70
2023/03/06 09:36:16;;;;;;;14.95;8.73;;;8.70;50.40;;;;;;2310790;55;20953;-70
2023/03/06 09:38:44;;;;;;;15.13;8.13;;;8.80;50.30;;;;;;2273547;55;21065;-71
2023/03/06 09:41:36;;;;;;;15.32;8.35;;;8.80;50.30;;;;;;2283212;55;20941;-70
2023/03/06 09:44:07;;;;;;;15.05;8.30;;;8.80;50.20;;;;;;2279695;56;20954;-71
2023/03/06 09:48:05;;;;;;;14.80;6.37;;;8.80;50.30;;;;;;2372148;55;21503;-70
2023/03/06 09:50:42;;;;;;;11.40;6.20;;;8.90;50.30;;;;;;2279927;55;21034;-70
2023/03/06 09:53:33;;;;;;;14.73;6.90;;;8.90;50.30;;;;;;2299241;56;20930;-70
2023/03/06 09:56:22;;;;;;;13.75;7.18;;;8.90;50.30;;;;;;2413891;54;21020;-70
2023/03/06 09:59:33;;;;;;;14.05;7.05;;;8.90;50.20;;;;;;2311155;55;20937;-71
2023/03/06 10:02:14;;;;;;;15.45;7.75;;;8.90;50.10;;;;;;2289021;56;1344300;-70
2023/03/06 10:04:42;;;;;;;11.93;5.85;;;8.90;50.10;;;;;;2310765;56;21512;-71
2023/03/06 10:11:15;;;;;;;13.23;6.90;;;9.00;50.20;;;;;;2310717;56;20969;-70
2023/03/06 10:13:49;;;;;;;12.88;5.37;;;9.00;50.10;;;;;;2338214;54;20913;-70
2023/03/06 10:16:26;;;;;;;12.45;5.80;;;9.00;50.00;;;;;;2314308;54;21390;-70
2023/03/06 10:18:54;;;;;;;11.50;6.28;;;9.00;49.80;;;;;;2309959;55;20996;-71
2023/03/06 10:25:00;;;;;;;11.23;6.03;;;9.00;49.90;;;;;;2310969;56;20997;-70
2023/03/06 10:27:47;;;;;;;11.05;5.70;;;9.10;49.90;;;;;;2371886;54;20937;-70
2023/03/06 10:30:23;;;;;;;8.93;5.00;;;9.10;49.80;;;;;;2294019;55;20977;-71
2023/03/06 10:32:57;;;;;;;10.45;5.53;;;9.10;49.90;;;;;;2550522;54;21229;-70
2023/03/06 10:35:47;;;;;;;8.32;4.47;;;9.10;49.90;;;;;;2311213;56;20981;-70
2023/03/06 10:38:55;;;;;;;11.32;5.55;;;9.20;49.90;;;;;;2311339;56;21013;-70
2023/03/06 10:41:25;;;;;;;13.07;6.70;;;9.20;50.00;;;;;;2313508;54;20993;-70
2023/03/06 10:45:10;;;;;;;13.65;6.87;;;9.30;50.20;;;;;;2311076;56;21305;-71
2023/03/06 10:47:37;;;;;;;19.92;9.00;;;9.30;50.00;;;;;;2310995;56;21269;-71
2023/03/06 10:50:06;;;;;;;20.98;9.57;;;9.40;50.10;;;;;;2290231;55;21249;-70
2023/03/06 10:52:34;;;;;;;16.70;9.18;;;9.40;50.00;;;;;;2310858;56;20938;-71
2023/03/06 10:55:31;;;;;;;17.17;8.30;;;9.50;50.00;;;;;;2297093;55;20923;-70
2023/03/06 10:57:57;;;;;;;13.90;7.35;;;9.50;49.70;;;;;;2307586;55;20937;-71
2023/03/06 11:00:28;;;;;;;16.12;7.22;;;9.50;49.80;;;;;;2310109;55;21361;-70
2023/03/06 11:04:56;;;;;;;12.20;6.80;;;9.60;49.70;;;;;;2309790;55;20998;-70
2023/03/06 11:07:33;;;;;;;11.07;5.78;;;9.70;49.60;;;;;;2311327;55;21320;-70
2023/03/06 11:10:02;;;;;;;11.07;5.72;;;9.70;49.60;;;;;;2310349;56;20995;-70
2023/03/06 11:12:38;;;;;;;11.35;6.25;;;9.80;49.60;;;;;;2320915;54;21317;-71
2023/03/06 11:16:25;;;;;;;12.35;6.28;;;9.80;49.50;;;;;;2403147;54;20968;-71
2023/03/06 11:19:02;;;;;;;10.15;5.55;;;9.80;49.30;;;;;;2312014;55;21433;-71
2023/03/06 11:21:36;;;;;;;10.65;5.55;;;9.90;49.50;;;;;;2311118;56;21060;-71
2023/03/06 11:24:14;;;;;;;9.75;5.10;;;9.90;49.40;;;;;;2315335;54;21505;-70
2023/03/06 11:28:04;;;;;;;10.40;4.70;;;10.00;48.40;;;;;;2311265;56;21545;-71
2023/03/06 11:30:40;;;;;;;7.93;4.35;;;10.00;48.40;;;;;;2317778;54;20965;-71
2023/03/06 11:33:26;;;;;;;7.40;4.25;;;10.10;48.50;;;;;;2311073;55;21434;-71
2023/03/06 11:37:30;;;;;;;7.60;4.05;;;10.10;48.30;;;;;;2307106;55;20921;-71
2023/03/06 11:40:28;;;;;;;10.07;5.15;;;10.20;48.40;;;;;;2311212;55;21233;-71
2023/03/06 11:45:56;;;;;;;11.43;5.57;;;10.20;48.10;;;;;;2328717;54;21012;-71
2023/03/06 11:48:31;;;;;;;9.50;3.92;;;10.30;48.10;;;;;;2311047;55;21041;-71
2023/03/06 11:51:12;;;;;;;9.35;4.78;;;10.40;48.10;;;;;;2311392;56;21445;-71
2023/03/06 11:53:38;;;;;;;10.13;4.65;;;10.40;47.90;;;;;;2310432;56;21443;-71
2023/03/06 11:56:30;;;;;;;8.32;4.75;;;10.40;48.00;;;;;;2310311;55;21040;-71
2023/03/06 12:01:56;;;;;;;10.23;4.53;;;10.40;47.90;;;;;;2349103;54;21770;-71
2023/03/06 12:07:23;;;;;;;5.85;3.37;;;10.60;47.90;;;;;;2311183;56;20913;-71
2023/03/06 12:10:13;;;;;;;6.60;3.08;;;10.60;47.70;;;;;;2300064;55;20986;-71
2023/03/06 12:20:49;;;;;;;7.53;4.10;;;10.70;47.90;;;;;;2352557;54;20930;-72
2023/03/06 12:23:43;;;;;;;6.35;3.10;;;10.80;47.70;;;;;;2314357;56;20957;-72
2023/03/06 12:26:24;;;;;;;7.30;4.28;;;10.80;47.60;;;;;;2311553;55;21513;-72
2023/03/06 12:34:13;;;;;;;8.52;4.40;;;10.80;47.60;;;;;;2303405;56;21292;-72
2023/03/06 12:39:29;;;;;;;6.60;3.78;;;10.90;47.60;;;;;;2289083;56;20913;-71
2023/03/06 12:42:01;;;;;;;9.00;4.30;;;10.90;47.30;;;;;;2311783;55;21021;-71
2023/03/06 12:45:58;;;;;;;;;;;10.90;47.20;;;;;;2525913;54;20945;-71
2023/03/06 12:48:25;;;;;;;7.35;3.60;;;10.90;46.90;;;;;;2311329;55;20068;-71
2023/03/06 12:50:52;;;;;;;7.55;4.03;;;10.90;47.10;;;;;;2310928;56;20941;-71
2023/03/06 12:53:28;;;;;;;6.95;3.95;;;10.90;47.70;;;;;;2311256;55;21009;-71
2023/03/06 12:56:04;;;;;;;7.15;4.07;;;10.80;46.70;;;;;;2299631;55;20979;-71
2023/03/06 12:58:34;;;;;;;9.35;4.55;;;10.80;46.80;;;;;;2301839;55;20914;-71
2023/03/06 13:01:32;;;;;;;7.60;4.15;;;10.80;46.60;;;;;;2374322;54;21001;-71
2023/03/06 13:04:39;;;;;;;6.95;3.85;;;10.80;46.50;;;;;;2349290;54;20933;-71
2023/03/06 13:07:17;;;;;;;7.70;3.60;;;10.80;46.40;;;;;;2320549;54;20913;-71
2023/03/06 13:10:08;;;;;;;7.62;4.28;;;10.80;46.60;;;;;;2288991;56;20981;-71
2023/03/06 13:12:49;;;;;;;8.60;4.35;;;10.80;46.40;;;;;;2311396;56;20974;-71
2023/03/06 13:16:46;;;;;;;7.62;4.18;;;10.80;46.50;;;;;;2281789;56;20966;-71
2023/03/06 13:19:21;;;;;;;9.00;4.72;;;10.80;46.40;;;;;;2280476;55;22062;-71
2023/03/06 13:22:28;;;;;;;11.10;6.72;;;10.70;46.50;;;;;;2279994;55;21014;-71
2023/03/06 13:25:55;;;;;;;8.30;4.87;;;10.70;46.20;;;;;;2302390;55;20950;-71
2023/03/06 13:28:23;;;;;;;7.35;4.05;;;10.70;46.30;;;;;;2263879;55;21713;-71
2023/03/06 13:30:50;;;;;;;9.13;5.65;;;10.60;46.40;;;;;;2280270;55;20968;-71
2023/03/06 13:34:34;;;;;;;8.13;5.20;;;10.60;46.30;;;;;;2279930;55;21929;-71
2023/03/06 13:43:48;;;;;;;7.00;3.92;;;10.50;46.00;;;;;;2289612;56;20914;-71
2023/03/06 13:46:28;;;;;;;7.18;3.08;;;10.50;46.30;;;;;;2288205;55;20945;-71
2023/03/06 13:49:17;;;;;;;7.35;3.15;;;10.40;46.10;;;;;;2310144;56;20980;-70
2023/03/06 13:55:06;;;;;;;5.95;3.10;;;10.30;46.00;;;;;;2323659;55;20962;-71
2023/03/06 14:04:39;;;;;;;5.78;2.70;;;10.20;46.20;;;;;;2279546;56;21713;-71
2023/03/06 14:07:27;;;;;;;5.90;3.00;;;10.10;46.50;;;;;;2290153;55;21477;-71